createdAt,value
2018-11-20T00:00:00.083Z,23.50
2018-11-20T00:03:07.456Z,23.23
2018-11-20T00:06:14.832Z,21.93
2018-11-20T00:09:22.228Z,25.17
2018-11-20T00:12:29.628Z,26.13
2018-11-20T00:15:37.008Z,24.77
2018-11-20T00:18:44.405Z,24.40
2018-11-20T00:21:51.807Z,25.37
2018-11-20T00:24:59.255Z,26.47
2018-11-20T00:28:06.621Z,26.43
2018-11-20T00:31:14.028Z,24.23
2018-11-20T00:34:21.402Z,26.27
2018-11-20T00:37:28.878Z,27.80
2018-11-20T00:40:36.360Z,24.37
2018-11-20T00:43:43.798Z,30.37
2018-11-20T00:46:51.285Z,26.77
2018-11-20T00:49:58.675Z,24.03
2018-11-20T00:53:06.067Z,26.10
2018-11-20T00:56:32.326Z,26.33
2018-11-20T00:59:40.005Z,26.40
2018-11-20T01:02:47.416Z,25.03
2018-11-20T01:05:54.869Z,25.93
2018-11-20T01:09:02.241Z,29.77
2018-11-20T01:12:09.632Z,24.70
2018-11-20T01:15:17.027Z,22.30
2018-11-20T01:18:23.985Z,24.90
2018-11-20T01:21:31.400Z,24.97
2018-11-20T01:24:38.798Z,25.47
2018-11-20T01:27:46.684Z,22.27
2018-11-20T01:30:54.085Z,20.77
2018-11-20T01:34:01.485Z,23.73
2018-11-20T01:37:07.422Z,20.47
2018-11-20T01:40:14.895Z,20.70
2018-11-20T01:43:22.270Z,24.40
2018-11-20T01:46:29.668Z,22.53
2018-11-20T01:49:37.140Z,24.23
2018-11-20T01:52:44.540Z,21.70
2018-11-20T01:55:52.062Z,24.20
2018-11-20T01:58:59.491Z,23.97
2018-11-20T02:02:06.872Z,21.43
2018-11-20T02:05:14.658Z,22.33
2018-11-20T02:08:22.157Z,23.30
2018-11-20T02:11:29.551Z,22.17
2018-11-20T02:14:37.482Z,23.47
2018-11-20T02:17:47.307Z,27.43
2018-11-20T02:20:55.580Z,20.50
2018-11-20T02:24:02.938Z,19.80
2018-11-20T02:27:10.498Z,17.77
2018-11-20T02:30:17.921Z,23.47
2018-11-20T02:33:24.441Z,22.60
2018-11-20T02:36:27.135Z,20.70
2018-11-20T02:39:34.529Z,21.30
2018-11-20T02:42:41.921Z,21.53
2018-11-20T02:45:49.312Z,21.20
2018-11-20T02:48:56.777Z,20.67
2018-11-20T02:52:04.190Z,22.53
2018-11-20T02:55:11.627Z,24.30
2018-11-20T02:58:19.162Z,23.00
2018-11-20T03:01:26.558Z,19.90
2018-11-20T03:04:33.976Z,24.60
2018-11-20T03:07:41.477Z,22.90
2018-11-20T03:10:49.002Z,21.60
2018-11-20T03:13:56.422Z,20.13
2018-11-20T03:17:03.817Z,21.57
2018-11-20T03:20:11.216Z,20.17
2018-11-20T03:23:18.621Z,20.43
2018-11-20T03:26:27.412Z,22.27
2018-11-20T03:29:53.666Z,22.50
2018-11-20T03:32:50.215Z,23.63
2018-11-20T03:35:57.686Z,22.00
2018-11-20T03:39:05.128Z,22.30
2018-11-20T03:42:12.530Z,22.03
2018-11-20T03:45:10.601Z,21.90
2018-11-20T03:48:10.631Z,23.93
2018-11-20T03:51:10.013Z,21.00
2018-11-20T03:54:16.085Z,23.30
2018-11-20T03:57:16.051Z,25.87
2018-11-20T04:00:16.190Z,21.13
2018-11-20T04:03:16.415Z,20.60
2018-11-20T04:06:16.694Z,26.33
2018-11-20T04:09:16.621Z,21.07
2018-11-20T04:12:08.752Z,24.37
2018-11-20T04:15:08.908Z,22.70
2018-11-20T04:18:09.012Z,21.77
2018-11-20T04:21:09.333Z,21.20
2018-11-20T04:24:08.795Z,23.60
2018-11-20T04:27:08.831Z,26.07
2018-11-20T04:30:08.643Z,26.77
2018-11-20T04:33:06.715Z,25.10
2018-11-20T04:35:58.841Z,24.30
2018-11-20T04:38:58.272Z,22.87
2018-11-20T04:41:58.067Z,26.80
2018-11-20T04:45:04.445Z,20.87
2018-11-20T04:48:03.850Z,22.50
2018-11-20T04:51:04.097Z,29.10
2018-11-20T04:53:56.402Z,23.10
2018-11-20T04:56:56.586Z,22.63
2018-11-20T05:00:02.565Z,26.67
2018-11-20T05:03:02.326Z,23.10
2018-11-20T05:06:02.439Z,23.83
2018-11-20T05:12:09.845Z,24.97
2018-11-20T05:15:15.866Z,25.70
2018-11-20T05:18:17.681Z,29.27
2018-11-20T05:21:17.411Z,24.43
2018-11-20T05:24:20.680Z,31.77
2018-11-20T05:27:18.785Z,26.07
2018-11-20T05:30:21.856Z,23.37
2018-11-20T05:33:22.020Z,26.20
2018-11-20T05:36:24.231Z,25.47
2018-11-20T05:39:25.766Z,25.07
2018-11-20T05:42:33.200Z,27.37
2018-11-20T05:45:40.586Z,29.23
2018-11-20T05:48:48.006Z,26.37
2018-11-20T05:51:54.679Z,26.50
2018-11-20T05:55:02.126Z,26.63
2018-11-20T05:58:09.609Z,25.13
2018-11-20T06:01:16.910Z,25.47
2018-11-20T06:04:24.650Z,29.17
2018-11-20T06:07:32.131Z,29.13
2018-11-20T06:10:39.555Z,28.37
2018-11-20T06:13:47.006Z,33.30
2018-11-20T06:16:54.360Z,29.27
2018-11-20T06:20:01.785Z,28.90
2018-11-20T06:22:58.530Z,32.47
2018-11-20T06:26:06.015Z,27.87
2018-11-20T06:29:13.536Z,29.73
2018-11-20T06:32:20.882Z,31.87
2018-11-20T06:35:28.283Z,30.03
2018-11-20T06:38:35.642Z,31.27
2018-11-20T06:41:43.026Z,25.97
2018-11-20T06:44:50.504Z,30.13
2018-11-20T06:47:58.110Z,31.87
2018-11-20T06:51:05.474Z,32.17
2018-11-20T06:54:12.856Z,31.57
2018-11-20T06:57:20.289Z,29.37
2018-11-20T07:00:27.657Z,30.23
2018-11-20T07:03:35.029Z,30.50
2018-11-20T07:06:42.431Z,27.70
2018-11-20T07:09:49.072Z,27.77
2018-11-20T07:12:56.475Z,32.10
2018-11-20T07:15:54.262Z,29.00
2018-11-20T07:19:01.392Z,27.33
2018-11-20T07:22:08.904Z,30.23
2018-11-20T07:25:16.290Z,30.17
2018-11-20T07:28:23.694Z,28.40
2018-11-20T07:31:31.061Z,29.27
2018-11-20T07:34:38.443Z,25.10
2018-11-20T07:37:45.846Z,26.80
2018-11-20T07:40:53.275Z,27.03
2018-11-20T07:43:59.400Z,29.67
2018-11-20T07:47:00.929Z,30.77
2018-11-20T07:50:08.346Z,25.63
2018-11-20T07:53:15.931Z,29.50
2018-11-20T07:56:23.395Z,25.87
2018-11-20T07:59:30.692Z,23.23
2018-11-20T08:02:38.580Z,26.13
2018-11-20T08:06:04.822Z,27.23
2018-11-20T08:09:12.290Z,25.53
2018-11-20T08:12:19.652Z,27.57
2018-11-20T08:15:27.192Z,27.00
2018-11-20T08:18:34.530Z,27.27
2018-11-20T08:21:41.924Z,27.53
2018-11-20T08:24:49.325Z,26.67
2018-11-20T08:27:56.794Z,31.30
2018-11-20T08:31:04.473Z,26.97
2018-11-20T08:34:11.818Z,26.03
2018-11-20T08:37:19.223Z,26.23
2018-11-20T08:40:23.521Z,30.43
2018-11-20T08:43:30.929Z,28.07
2018-11-20T08:46:38.469Z,25.37
2018-11-20T08:53:12.472Z,26.13
2018-11-20T08:56:19.910Z,26.20
2018-11-20T08:59:27.336Z,26.40
2018-11-20T09:02:35.284Z,29.03
2018-11-20T09:05:31.970Z,24.23
2018-11-20T09:08:39.374Z,27.27
2018-11-20T09:11:46.765Z,32.77
2018-11-20T09:14:54.185Z,27.60
2018-11-20T09:18:01.809Z,22.93
2018-11-20T09:21:09.565Z,30.00
2018-11-20T09:24:12.771Z,27.03
2018-11-20T09:27:20.150Z,28.30
2018-11-20T09:30:27.597Z,25.70
2018-11-20T09:33:34.985Z,23.97
2018-11-20T09:36:42.390Z,23.83
2018-11-20T09:39:51.277Z,23.90
2018-11-20T09:42:58.792Z,27.48
2018-11-20T09:46:10.248Z,24.97
2018-11-20T09:49:17.652Z,28.63
2018-11-20T09:52:25.391Z,28.03
2018-11-20T09:55:32.784Z,32.10
2018-11-20T09:58:40.245Z,28.03
2018-11-20T10:01:47.632Z,27.97
2018-11-20T10:04:55.074Z,28.10
2018-11-20T10:08:02.936Z,29.10
2018-11-20T10:11:10.368Z,28.97
2018-11-20T10:14:17.945Z,26.93
2018-11-20T10:17:25.173Z,29.93
2018-11-20T10:20:32.979Z,29.43
2018-11-20T10:23:40.817Z,26.93
2018-11-20T10:26:48.210Z,25.27
2018-11-20T10:29:55.604Z,26.87
2018-11-20T10:33:03.015Z,25.87
2018-11-20T10:36:09.738Z,28.07
2018-11-20T10:39:17.606Z,26.77
2018-11-20T10:42:25.097Z,25.37
2018-11-20T10:45:32.561Z,30.93
2018-11-20T10:48:39.960Z,32.10
2018-11-20T10:51:47.490Z,27.03
2018-11-20T10:54:54.904Z,31.40
2018-11-20T10:58:02.318Z,26.10
2018-11-20T11:01:09.979Z,27.63
2018-11-20T11:04:17.815Z,28.67
2018-11-20T11:07:25.226Z,29.60
2018-11-20T11:10:32.709Z,27.53
2018-11-20T11:13:40.081Z,32.30
2018-11-20T11:16:47.510Z,33.70
2018-11-20T11:20:29.066Z,31.10
2018-11-20T11:26:29.965Z,31.47
2018-11-20T11:29:33.076Z,29.17
2018-11-20T11:38:28.702Z,29.23
2018-11-20T11:41:31.906Z,30.43
2018-11-20T11:44:31.891Z,30.83
2018-11-20T11:47:31.857Z,34.27
2018-11-20T11:50:31.821Z,30.57
2018-11-20T11:53:31.840Z,31.77
2018-11-20T11:56:32.217Z,31.20
2018-11-20T11:59:32.270Z,32.47
2018-11-20T12:05:30.745Z,37.83
2018-11-20T12:08:30.890Z,29.80
2018-11-20T12:11:33.771Z,31.73
2018-11-20T12:14:33.625Z,35.77
2018-11-20T12:17:36.371Z,37.50
2018-11-20T12:20:43.281Z,31.57
2018-11-20T12:23:39.852Z,30.07
2018-11-20T12:26:39.635Z,34.83
2018-11-20T12:29:39.631Z,34.63
2018-11-20T12:32:42.371Z,35.73
2018-11-20T12:38:44.079Z,30.70
2018-11-20T12:41:44.426Z,33.70
2018-11-20T12:47:43.207Z,30.63
2018-11-20T12:50:49.124Z,30.40
2018-11-20T12:53:54.334Z,30.80
2018-11-20T12:57:01.382Z,29.57
2018-11-20T13:00:08.717Z,25.30
2018-11-20T13:03:15.772Z,27.80
2018-11-20T13:06:22.771Z,27.17
2018-11-20T13:09:30.287Z,25.03
2018-11-20T13:12:37.279Z,25.07
2018-11-20T13:15:44.531Z,21.70
2018-11-20T13:18:54.374Z,20.57
2018-11-20T13:21:58.562Z,19.20
2018-11-20T13:25:05.615Z,19.57
2018-11-20T13:28:12.585Z,16.43
2018-11-20T13:31:19.241Z,19.07
2018-11-20T13:34:27.250Z,16.87
2018-11-20T13:37:33.778Z,16.53
2018-11-20T13:40:59.535Z,19.10
2018-11-20T13:44:06.702Z,18.97
2018-11-20T13:47:13.711Z,18.37
2018-11-20T13:50:20.694Z,17.47
2018-11-20T13:53:27.747Z,16.70
2018-11-20T13:56:34.726Z,18.97
2018-11-20T13:59:41.841Z,18.23
2018-11-20T14:02:48.802Z,17.00
2018-11-20T14:05:55.839Z,17.03
2018-11-20T14:09:02.839Z,16.43
2018-11-20T14:12:10.235Z,17.60
2018-11-20T14:15:17.207Z,15.23
2018-11-20T14:18:24.446Z,17.37
2018-11-20T14:21:32.300Z,19.47
2018-11-20T14:24:32.255Z,16.20
2018-11-20T14:27:31.809Z,16.93
2018-11-20T14:30:31.887Z,18.00
2018-11-20T14:33:31.646Z,18.83
2018-11-20T14:36:31.530Z,21.20
2018-11-20T14:39:31.622Z,14.70
2018-11-20T14:42:31.364Z,16.07
2018-11-20T14:45:32.511Z,19.10
2018-11-20T14:48:31.510Z,15.83
2018-11-20T14:51:31.687Z,16.10
2018-11-20T14:54:31.697Z,15.10
2018-11-20T14:57:31.542Z,15.83
2018-11-20T15:00:31.501Z,15.43
2018-11-20T15:03:31.090Z,13.47
2018-11-20T15:06:28.926Z,14.00
2018-11-20T15:09:28.469Z,17.80
2018-11-20T15:12:28.494Z,19.20
2018-11-20T15:15:27.932Z,14.03
2018-11-20T15:21:28.430Z,14.47
2018-11-20T15:30:35.891Z,13.40
2018-11-20T15:33:35.971Z,12.90
2018-11-20T15:36:35.954Z,11.20
2018-11-20T15:42:19.066Z,14.93
2018-11-20T15:45:19.096Z,11.27
2018-11-20T15:48:18.999Z,14.93
2018-11-20T15:51:18.902Z,13.30
2018-11-20T15:54:18.581Z,12.63
2018-11-20T15:57:18.180Z,12.50
2018-11-20T16:00:26.122Z,11.30
2018-11-20T16:03:33.134Z,11.23
2018-11-20T16:06:40.239Z,11.57
2018-11-20T16:09:47.280Z,15.03
2018-11-20T16:12:54.253Z,13.90
2018-11-20T16:16:01.264Z,13.50
2018-11-20T16:19:08.239Z,13.30
2018-11-20T16:22:15.391Z,13.63
2018-11-20T16:25:17.076Z,17.43
2018-11-20T16:28:23.874Z,17.13
2018-11-20T16:31:30.902Z,18.57
2018-11-20T16:34:37.675Z,18.77
2018-11-20T16:37:44.798Z,18.70
2018-11-20T16:40:51.827Z,16.17
2018-11-20T16:43:58.814Z,17.97
2018-11-20T16:47:05.850Z,18.00
2018-11-20T16:50:12.898Z,19.83
2018-11-20T16:53:20.029Z,15.63
2018-11-20T16:56:27.003Z,16.33
2018-11-20T16:59:34.024Z,17.27
2018-11-20T17:02:41.051Z,18.13
2018-11-20T17:05:48.154Z,15.40
2018-11-20T17:12:21.299Z,17.20
2018-11-20T17:18:36.555Z,20.73
2018-11-20T17:21:43.615Z,20.47
2018-11-20T17:24:50.600Z,23.77
2018-11-20T17:31:02.156Z,21.77
2018-11-20T17:34:09.221Z,23.10
2018-11-20T17:37:16.243Z,25.43
2018-11-20T17:40:23.631Z,25.30
2018-11-20T17:43:30.719Z,24.73
2018-11-20T17:46:37.684Z,24.50
2018-11-20T17:49:44.678Z,25.93
2018-11-20T17:52:51.660Z,27.00
2018-11-20T17:55:58.639Z,30.40
2018-11-20T17:59:05.594Z,24.00
2018-11-20T18:02:12.665Z,27.43
2018-11-20T18:05:19.689Z,26.53
2018-11-20T18:08:26.680Z,26.40
2018-11-20T18:11:33.692Z,26.73
2018-11-20T18:14:40.680Z,33.30
2018-11-20T18:17:47.900Z,28.57
2018-11-20T18:20:54.781Z,30.47
2018-11-20T18:24:01.764Z,26.83
2018-11-20T18:27:08.780Z,27.77
2018-11-20T18:30:15.786Z,32.10
2018-11-20T18:36:33.168Z,31.77
2018-11-20T18:39:40.229Z,27.03
2018-11-20T18:42:47.196Z,30.97
2018-11-20T18:45:54.280Z,32.33
2018-11-20T18:49:01.800Z,28.73
2018-11-20T18:52:08.845Z,31.87
2018-11-20T18:55:16.056Z,29.80
2018-11-20T18:58:23.098Z,26.97
2018-11-20T19:01:30.283Z,24.07
2018-11-20T19:04:37.275Z,28.80
2018-11-20T19:07:44.330Z,29.53
2018-11-20T19:10:51.351Z,30.90
2018-11-20T19:13:58.310Z,31.50
2018-11-20T19:20:08.507Z,27.63
2018-11-20T19:23:15.536Z,25.47
2018-11-20T19:26:22.536Z,28.73
2018-11-20T19:29:29.540Z,22.73
2018-11-20T19:32:36.500Z,24.60
2018-11-20T19:35:43.544Z,24.27
2018-11-20T19:38:50.515Z,26.97
2018-11-20T19:41:57.493Z,23.80
2018-11-20T19:45:04.493Z,26.47
2018-11-20T19:48:11.458Z,25.87
2018-11-20T19:51:18.574Z,27.87
2018-11-20T19:54:25.549Z,27.23
2018-11-20T19:57:32.957Z,27.03
2018-11-20T20:00:39.973Z,25.67
2018-11-20T20:03:46.979Z,26.87
2018-11-20T20:06:54.149Z,25.40
2018-11-20T20:10:01.176Z,25.60
2018-11-20T20:13:08.219Z,26.10
2018-11-20T20:16:15.181Z,26.63
2018-11-20T20:19:22.215Z,29.67
2018-11-20T20:22:29.294Z,26.83
2018-11-20T20:29:02.525Z,28.73
2018-11-20T20:32:09.536Z,25.80
2018-11-20T20:35:16.574Z,25.70
2018-11-20T20:38:23.633Z,24.83
2018-11-20T20:41:30.656Z,26.53
2018-11-20T20:44:37.643Z,24.73
2018-11-20T20:47:44.699Z,28.53
2018-11-20T20:50:51.614Z,26.47
2018-11-20T20:53:58.609Z,31.10
2018-11-20T20:57:05.634Z,24.40
2018-11-20T21:00:12.643Z,28.30
2018-11-20T21:03:19.645Z,27.23
2018-11-20T21:06:16.894Z,25.80
2018-11-20T21:09:26.348Z,25.37
2018-11-20T21:15:59.539Z,23.03
2018-11-20T21:19:06.539Z,25.93
2018-11-20T21:22:13.559Z,24.40
2018-11-20T21:25:20.734Z,27.93
2018-11-20T21:28:27.846Z,25.80
2018-11-20T21:31:34.866Z,22.60
2018-11-20T21:34:41.865Z,23.77
2018-11-20T21:37:48.923Z,23.57
2018-11-20T21:40:56.071Z,22.50
2018-11-20T21:44:03.189Z,24.27
2018-11-20T21:47:10.186Z,21.80
2018-11-20T21:50:17.233Z,25.00
2018-11-20T21:53:24.442Z,23.10
2018-11-20T21:56:31.448Z,22.30
2018-11-20T21:59:43.809Z,23.60
2018-11-20T22:02:51.322Z,20.20
2018-11-20T22:05:58.357Z,20.70
2018-11-20T22:09:05.096Z,19.70
2018-11-20T22:12:12.091Z,20.73
2018-11-20T22:15:19.156Z,23.13
2018-11-20T22:18:26.143Z,21.97
2018-11-20T22:21:33.266Z,19.80
2018-11-20T22:24:40.239Z,21.93
2018-11-20T22:27:47.259Z,17.50
2018-11-20T22:30:54.224Z,17.97
2018-11-20T22:34:01.339Z,17.20
2018-11-20T22:37:10.271Z,20.30
2018-11-20T22:40:15.308Z,19.23
2018-11-20T22:43:22.305Z,20.57
2018-11-20T22:46:29.325Z,16.00
2018-11-20T22:49:36.308Z,17.57
2018-11-20T22:52:50.271Z,17.77
2018-11-20T22:55:57.236Z,18.87
2018-11-20T22:59:04.238Z,16.83
2018-11-20T23:02:11.272Z,19.50
2018-11-20T23:05:17.688Z,18.50
2018-11-20T23:11:00.048Z,17.23
2018-11-20T23:13:48.022Z,18.40
2018-11-20T23:16:35.939Z,19.07
2018-11-20T23:19:24.360Z,20.73
2018-11-20T23:22:12.295Z,18.60
2018-11-20T23:25:00.262Z,17.73
2018-11-20T23:27:48.237Z,20.03
2018-11-20T23:33:30.225Z,21.57
2018-11-20T23:39:12.368Z,19.37
2018-11-20T23:42:00.329Z,19.87
2018-11-20T23:44:48.790Z,21.23
2018-11-20T23:47:36.735Z,20.90
2018-11-20T23:50:24.697Z,20.00
2018-11-20T23:53:12.627Z,23.33
2018-11-20T23:56:00.754Z,21.27
